createdAt,value
2023-04-15T00:00:59.723Z,3.53
2023-04-15T00:03:28.715Z,3.70
2023-04-15T00:05:57.535Z,4.53
2023-04-15T00:08:25.898Z,4.20
2023-04-15T00:10:54.873Z,4.13
2023-04-15T00:13:24.950Z,3.97
2023-04-15T00:15:53.325Z,4.00
2023-04-15T00:18:21.883Z,3.37
2023-04-15T00:20:50.198Z,3.80
2023-04-15T00:23:29.229Z,3.77
2023-04-15T00:25:57.579Z,3.67
2023-04-15T00:28:28.008Z,4.33
2023-04-15T00:30:56.583Z,4.17
2023-04-15T00:33:25.442Z,4.30
2023-04-15T00:35:53.751Z,3.90
2023-04-15T00:38:22.118Z,4.23
2023-04-15T00:40:50.637Z,4.40
2023-04-15T00:43:18.971Z,4.53
2023-04-15T00:45:48.827Z,4.13
2023-04-15T00:48:17.488Z,4.43
2023-04-15T00:50:47.439Z,4.50
2023-04-15T00:53:15.967Z,4.07
2023-04-15T00:55:45.630Z,4.73
2023-04-15T00:58:14.190Z,4.63
2023-04-15T01:00:43.658Z,4.47
2023-04-15T01:03:13.945Z,5.10
2023-04-15T01:05:42.893Z,4.13
2023-04-15T01:08:11.345Z,3.97
2023-04-15T01:10:40.093Z,4.43
2023-04-15T01:13:09.197Z,4.20
2023-04-15T01:15:37.919Z,3.73
2023-04-15T01:18:07.492Z,4.40
2023-04-15T01:20:37.688Z,4.47
2023-04-15T01:23:06.182Z,4.27
2023-04-15T01:25:36.068Z,3.73
2023-04-15T01:28:05.041Z,3.77
2023-04-15T01:30:35.775Z,3.67
2023-04-15T01:33:04.228Z,3.47
2023-04-15T01:35:33.240Z,3.50
2023-04-15T01:38:07.430Z,3.90
2023-04-15T01:40:37.408Z,3.83
2023-04-15T01:43:06.151Z,4.10
2023-04-15T01:45:34.532Z,3.40
2023-04-15T01:48:03.022Z,4.30
2023-04-15T01:50:31.480Z,4.20
2023-04-15T01:52:59.888Z,3.83
2023-04-15T01:55:28.353Z,4.00
2023-04-15T01:57:58.231Z,3.53
2023-04-15T02:00:26.661Z,3.57
2023-04-15T02:02:55.541Z,3.87
2023-04-15T02:05:24.289Z,3.80
2023-04-15T02:07:53.785Z,3.63
2023-04-15T02:10:22.350Z,4.50
2023-04-15T02:12:50.707Z,3.90
2023-04-15T02:15:25.113Z,4.20
2023-04-15T02:18:02.005Z,3.50
2023-04-15T02:20:32.325Z,4.00
2023-04-15T02:23:01.069Z,4.17
2023-04-15T02:25:29.426Z,3.90
2023-04-15T02:27:58.897Z,3.87
2023-04-15T02:30:28.581Z,3.47
2023-04-15T02:32:57.619Z,3.50
2023-04-15T02:35:26.091Z,3.77
2023-04-15T02:37:54.445Z,3.40
2023-04-15T02:40:22.844Z,4.00
2023-04-15T02:42:51.252Z,4.07
2023-04-15T02:45:23.631Z,3.87
2023-04-15T02:47:53.350Z,2.90
2023-04-15T02:50:23.574Z,3.20
2023-04-15T02:52:52.188Z,2.87
2023-04-15T02:55:20.609Z,3.00
2023-04-15T02:57:53.602Z,2.80
2023-04-15T03:00:21.992Z,3.20
2023-04-15T03:02:52.515Z,2.83
2023-04-15T03:05:23.596Z,3.10
2023-04-15T03:07:52.213Z,3.33
2023-04-15T03:10:20.933Z,3.20
2023-04-15T03:12:49.808Z,2.87
2023-04-15T03:15:18.458Z,3.80
2023-04-15T03:17:49.782Z,3.30
2023-04-15T03:20:18.354Z,3.77
2023-04-15T03:22:48.222Z,4.10
2023-04-15T03:25:16.982Z,4.20
2023-04-15T03:27:45.434Z,3.57
2023-04-15T03:30:14.923Z,4.00
2023-04-15T03:32:43.520Z,3.73
2023-04-15T03:35:12.047Z,4.30
2023-04-15T03:37:40.369Z,4.10
2023-04-15T03:40:11.593Z,3.97
2023-04-15T03:42:39.953Z,4.30
2023-04-15T03:45:09.281Z,3.97
2023-04-15T03:47:37.672Z,4.23
2023-04-15T03:50:07.519Z,3.80
2023-04-15T03:52:35.889Z,4.00
2023-04-15T03:55:04.472Z,4.40
2023-04-15T03:57:38.119Z,4.30
2023-04-15T04:00:10.243Z,4.20
2023-04-15T04:02:38.880Z,4.07
2023-04-15T04:05:08.217Z,4.13
2023-04-15T04:07:36.633Z,4.10
2023-04-15T04:10:05.384Z,3.50
2023-04-15T04:12:35.365Z,3.37
2023-04-15T04:15:03.831Z,3.40
2023-04-15T04:17:32.248Z,3.30
2023-04-15T04:20:00.648Z,3.53
2023-04-15T04:22:29.026Z,3.47
2023-04-15T04:24:59.411Z,3.50
2023-04-15T04:27:27.758Z,4.10
2023-04-15T04:29:57.569Z,3.67
2023-04-15T04:32:26.127Z,3.93
2023-04-15T04:34:54.518Z,3.80
2023-04-15T04:37:23.385Z,3.60
2023-04-15T04:39:51.748Z,3.27
2023-04-15T04:42:20.141Z,2.67
2023-04-15T04:44:49.341Z,2.57
2023-04-15T04:47:19.115Z,2.50
2023-04-15T04:49:47.757Z,3.37
2023-04-15T04:52:16.307Z,3.40
2023-04-15T04:54:44.625Z,3.20
2023-04-15T04:57:23.027Z,3.50
2023-04-15T04:59:51.368Z,3.30
2023-04-15T05:02:21.587Z,3.27
2023-04-15T05:04:50.191Z,3.20
2023-04-15T05:07:18.559Z,3.50
2023-04-15T05:09:46.950Z,3.23
2023-04-15T05:12:15.394Z,4.00
2023-04-15T05:14:43.735Z,3.30
2023-04-15T05:17:12.498Z,2.67
2023-04-15T05:19:42.291Z,2.10
2023-04-15T05:22:10.621Z,1.80
2023-04-15T05:24:38.952Z,1.80
2023-04-15T05:27:10.685Z,1.40
2023-04-15T05:29:39.139Z,1.43
2023-04-15T05:32:07.977Z,1.57
2023-04-15T05:34:36.487Z,1.20
2023-04-15T05:37:06.168Z,1.50
2023-04-15T05:39:34.555Z,1.47
2023-04-15T05:42:03.585Z,1.40
2023-04-15T05:44:32.020Z,1.40
2023-04-15T05:47:00.748Z,1.27
2023-04-15T05:49:29.209Z,1.17
2023-04-15T05:51:57.618Z,1.47
2023-04-15T05:54:27.918Z,1.40
2023-04-15T05:56:57.614Z,1.40
2023-04-15T05:59:26.025Z,1.50
2023-04-15T06:01:54.412Z,1.57
2023-04-15T06:04:22.979Z,1.37
2023-04-15T06:06:52.506Z,1.70
2023-04-15T06:09:20.934Z,1.60
2023-04-15T06:11:53.209Z,1.47
2023-04-15T06:14:21.692Z,1.80
2023-04-15T06:16:53.545Z,1.80
2023-04-15T06:19:21.874Z,1.73
2023-04-15T06:21:52.536Z,4.03
2023-04-15T06:24:21.002Z,4.20
2023-04-15T06:26:52.493Z,4.30
2023-04-15T06:29:21.360Z,5.00
2023-04-15T06:31:51.210Z,3.00
2023-04-15T06:34:19.657Z,2.37
2023-04-15T06:36:48.296Z,1.80
2023-04-15T06:39:16.659Z,1.87
2023-04-15T06:41:45.072Z,1.40
2023-04-15T06:44:14.902Z,1.57
2023-04-15T06:46:43.226Z,1.07
2023-04-15T06:49:12.328Z,1.67
2023-04-15T06:51:40.912Z,1.70
2023-04-15T06:54:09.233Z,2.00
2023-04-15T06:56:37.622Z,2.00
2023-04-15T06:59:07.271Z,1.43
2023-04-15T07:01:37.478Z,1.50
2023-04-15T07:04:06.616Z,1.40
2023-04-15T07:06:35.636Z,1.53
2023-04-15T07:09:05.527Z,1.20
2023-04-15T07:11:34.222Z,1.00
2023-04-15T07:14:02.885Z,1.20
2023-04-15T07:16:38.470Z,1.30
2023-04-15T07:19:07.393Z,1.07
2023-04-15T07:21:35.768Z,1.00
2023-04-15T07:24:04.109Z,1.00
2023-04-15T07:26:32.498Z,1.17
2023-04-15T07:29:01.382Z,1.20
2023-04-15T07:31:30.385Z,1.13
2023-04-15T07:34:00.440Z,1.03
2023-04-15T07:36:29.352Z,0.93
2023-04-15T07:39:04.075Z,1.40
2023-04-15T07:41:32.916Z,1.47
2023-04-15T07:44:01.358Z,1.00
2023-04-15T07:46:29.743Z,1.20
2023-04-15T07:48:58.121Z,1.30
2023-04-15T07:51:29.343Z,1.10
2023-04-15T07:53:57.720Z,1.27
2023-04-15T07:56:26.462Z,1.23
2023-04-15T07:58:54.901Z,1.40
2023-04-15T08:01:23.551Z,1.17
2023-04-15T08:03:52.889Z,1.57
2023-04-15T08:06:21.371Z,1.43
2023-04-15T08:08:54.648Z,1.37
2023-04-15T08:11:23.287Z,1.13
2023-04-15T08:13:53.678Z,1.10
2023-04-15T08:16:24.700Z,1.53
2023-04-15T08:18:54.313Z,1.43
2023-04-15T08:21:23.035Z,1.27
2023-04-15T08:23:54.707Z,1.20
2023-04-15T08:26:23.624Z,1.10
2023-04-15T08:28:53.364Z,1.57
2023-04-15T08:31:22.385Z,1.00
2023-04-15T08:33:52.505Z,1.33
2023-04-15T08:36:21.164Z,1.43
2023-04-15T08:38:56.236Z,1.57
2023-04-15T08:41:26.198Z,1.47
2023-04-15T08:43:58.797Z,1.27
2023-04-15T08:46:27.728Z,1.20
2023-04-15T08:49:01.099Z,1.53
2023-04-15T08:51:30.186Z,1.50
2023-04-15T08:54:01.540Z,2.27
2023-04-15T08:56:33.701Z,1.20
2023-04-15T08:59:03.871Z,1.70
2023-04-15T09:01:33.737Z,1.30
2023-04-15T09:04:06.700Z,1.77
2023-04-15T09:06:36.299Z,1.50
2023-04-15T09:09:06.115Z,1.50
2023-04-15T09:11:34.611Z,1.67
2023-04-15T09:14:03.714Z,1.60
2023-04-15T09:16:32.635Z,1.27
2023-04-15T09:19:01.225Z,1.30
2023-04-15T09:21:29.812Z,1.47
2023-04-15T09:24:00.041Z,1.20
2023-04-15T09:26:34.996Z,1.30
2023-04-15T09:29:07.946Z,1.60
2023-04-15T09:31:36.876Z,1.63
2023-04-15T09:34:05.399Z,1.60
2023-04-15T09:36:52.982Z,1.50
2023-04-15T09:39:21.637Z,1.70
2023-04-15T09:42:08.010Z,1.27
2023-04-15T09:44:36.691Z,1.90
2023-04-15T09:47:05.077Z,1.77
2023-04-15T09:49:33.621Z,1.73
2023-04-15T09:52:06.348Z,1.60
2023-04-15T09:54:36.802Z,2.30
2023-04-15T09:57:12.247Z,2.67
2023-04-15T09:59:40.953Z,1.87
2023-04-15T10:02:09.552Z,1.90
2023-04-15T10:04:42.190Z,2.20
2023-04-15T10:07:12.742Z,1.77
2023-04-15T10:09:42.050Z,2.50
2023-04-15T10:12:12.534Z,2.80
2023-04-15T10:14:43.275Z,1.50
2023-04-15T10:17:13.651Z,2.00
2023-04-15T10:19:42.953Z,2.07
2023-04-15T10:22:12.332Z,1.90
2023-04-15T10:24:41.815Z,2.03
2023-04-15T10:27:12.188Z,1.90
2023-04-15T10:29:41.200Z,1.87
2023-04-15T10:32:10.512Z,1.77
2023-04-15T10:34:39.594Z,2.00
2023-04-15T10:37:12.273Z,1.80
2023-04-15T10:39:42.990Z,1.93
2023-04-15T10:42:14.071Z,1.40
2023-04-15T10:44:44.910Z,1.83
2023-04-15T10:47:15.506Z,1.73
2023-04-15T10:49:49.968Z,1.97
2023-04-15T10:52:19.704Z,2.23
2023-04-15T10:54:48.068Z,2.30
2023-04-15T10:57:24.021Z,2.17
2023-04-15T11:00:11.317Z,1.70
2023-04-15T11:02:42.205Z,2.07
2023-04-15T11:05:11.458Z,2.07
2023-04-15T11:07:41.934Z,1.63
2023-04-15T11:10:48.837Z,2.33
2023-04-15T11:13:23.743Z,2.10
2023-04-15T11:15:54.033Z,2.30
2023-04-15T11:18:24.222Z,2.80
2023-04-15T11:20:55.706Z,2.40
2023-04-15T11:23:31.257Z,2.43
2023-04-15T11:26:00.476Z,2.60
2023-04-15T11:28:31.535Z,2.30
2023-04-15T11:31:06.679Z,2.17
2023-04-15T11:33:35.476Z,2.47
2023-04-15T11:36:04.698Z,2.00
2023-04-15T11:38:33.142Z,2.30
2023-04-15T11:41:04.431Z,1.80
2023-04-15T11:43:35.566Z,2.17
2023-04-15T11:46:04.976Z,2.43
2023-04-15T11:48:35.326Z,2.10
2023-04-15T11:51:05.246Z,2.10
2023-04-15T11:53:42.130Z,2.60
2023-04-15T11:56:11.654Z,2.10
2023-04-15T11:58:42.524Z,2.63
2023-04-15T12:01:13.994Z,2.27
2023-04-15T12:03:44.637Z,2.43
2023-04-15T12:06:19.284Z,3.67
2023-04-15T12:09:05.459Z,3.53
2023-04-15T12:11:36.871Z,4.20
2023-04-15T12:14:09.579Z,3.60
2023-04-15T12:16:48.309Z,4.90
2023-04-15T12:19:25.247Z,3.20
2023-04-15T12:21:55.528Z,1.73
2023-04-15T12:24:24.199Z,1.90
2023-04-15T12:26:55.135Z,2.50
2023-04-15T12:29:28.275Z,1.97
2023-04-15T12:31:58.029Z,3.00
2023-04-15T12:34:30.588Z,6.00
2023-04-15T12:37:00.229Z,3.07
2023-04-15T12:39:31.250Z,2.87
2023-04-15T12:42:01.787Z,2.40
2023-04-15T12:44:31.616Z,2.30
2023-04-15T12:47:00.804Z,2.17
2023-04-15T12:49:29.888Z,2.17
2023-04-15T12:52:00.563Z,2.27
2023-04-15T12:54:29.717Z,2.00
2023-04-15T12:56:59.238Z,2.57
2023-04-15T12:59:27.785Z,1.70
2023-04-15T13:01:57.918Z,2.30
2023-04-15T13:04:30.539Z,2.37
2023-04-15T13:06:59.244Z,2.27
2023-04-15T13:09:27.882Z,2.33
2023-04-15T13:11:57.684Z,2.53
2023-04-15T13:14:27.150Z,2.50
2023-04-15T13:16:58.151Z,3.50
2023-04-15T13:19:26.776Z,2.70
2023-04-15T13:21:57.140Z,2.47
2023-04-15T13:24:25.698Z,2.70
2023-04-15T13:26:55.340Z,2.60
2023-04-15T13:29:23.750Z,3.30
2023-04-15T13:31:52.472Z,2.63
2023-04-15T13:34:22.312Z,3.03
2023-04-15T13:36:50.753Z,2.77
2023-04-15T13:39:19.144Z,3.40
2023-04-15T13:41:48.463Z,2.93
2023-04-15T13:44:16.970Z,3.27
2023-04-15T13:46:45.514Z,3.60
2023-04-15T13:49:13.852Z,3.40
2023-04-15T13:51:43.730Z,3.03
2023-04-15T13:54:12.376Z,2.40
2023-04-15T13:56:40.839Z,2.73
2023-04-15T13:59:09.327Z,10.13
2023-04-15T14:01:37.863Z,12.53
2023-04-15T14:04:06.943Z,9.63
2023-04-15T14:06:35.751Z,3.20
2023-04-15T14:09:05.733Z,2.20
2023-04-15T14:11:35.418Z,3.90
2023-04-15T14:14:04.156Z,3.57
2023-04-15T14:16:33.956Z,3.17
2023-04-15T14:19:02.880Z,2.23
2023-04-15T14:21:32.621Z,2.10
2023-04-15T14:24:01.186Z,2.00
2023-04-15T14:26:30.924Z,2.20
2023-04-15T14:28:59.433Z,2.07
2023-04-15T14:31:28.013Z,2.60
2023-04-15T14:33:57.181Z,3.00
2023-04-15T14:36:26.070Z,2.33
2023-04-15T14:38:55.239Z,2.77
2023-04-15T14:41:23.613Z,2.73
2023-04-15T14:43:53.927Z,3.27
2023-04-15T14:46:22.373Z,3.10
2023-04-15T14:48:51.009Z,2.90
2023-04-15T14:51:20.728Z,3.20
2023-04-15T14:53:50.152Z,3.67
2023-04-15T14:56:18.598Z,3.73
2023-04-15T14:58:47.036Z,4.60
2023-04-15T15:01:16.941Z,3.90
2023-04-15T15:03:45.768Z,3.50
2023-04-15T15:06:14.554Z,6.10
2023-04-15T15:08:43.007Z,5.93
2023-04-15T15:11:11.565Z,6.20
2023-04-15T15:13:39.974Z,6.10
2023-04-15T15:16:09.107Z,9.77
2023-04-15T15:18:38.993Z,7.73
2023-04-15T15:21:07.567Z,6.43
2023-04-15T15:23:35.955Z,7.17
2023-04-15T15:26:04.417Z,5.00
2023-04-15T15:28:33.025Z,6.30
2023-04-15T15:31:01.811Z,5.70
2023-04-15T15:33:30.370Z,4.40
2023-04-15T15:36:00.524Z,4.13
2023-04-15T15:38:29.431Z,3.27
2023-04-15T15:41:00.323Z,3.93
2023-04-15T15:43:28.722Z,3.23
2023-04-15T15:45:59.386Z,2.63
2023-04-15T15:48:28.073Z,3.30
2023-04-15T15:50:58.742Z,3.17
2023-04-15T15:53:28.678Z,3.27
2023-04-15T15:55:59.226Z,2.93
2023-04-15T15:58:27.620Z,2.70
2023-04-15T16:00:56.793Z,3.00
2023-04-15T16:03:25.564Z,3.07
2023-04-15T16:05:54.073Z,3.30
2023-04-15T16:08:22.445Z,3.00
2023-04-15T16:10:52.248Z,2.77
2023-04-15T16:13:20.696Z,2.83
2023-04-15T16:15:50.998Z,2.87
2023-04-15T16:18:19.756Z,2.77
2023-04-15T16:20:48.167Z,2.77
2023-04-15T16:23:17.747Z,2.90
2023-04-15T16:25:46.470Z,2.80
2023-04-15T16:28:25.691Z,2.73
2023-04-15T16:30:57.891Z,3.13
2023-04-15T16:33:26.323Z,2.70
2023-04-15T16:35:54.739Z,2.90
2023-04-15T16:38:23.347Z,6.30
2023-04-15T16:40:52.758Z,5.93
2023-04-15T16:43:22.509Z,4.50
2023-04-15T16:45:51.566Z,8.87
2023-04-15T16:48:20.384Z,7.40
2023-04-15T16:50:48.798Z,5.90
2023-04-15T16:53:17.755Z,5.00
2023-04-15T16:55:47.440Z,4.43
2023-04-15T16:58:15.884Z,3.80
2023-04-15T17:00:46.185Z,5.30
2023-04-15T17:03:14.799Z,5.23
2023-04-15T17:05:43.405Z,4.17
2023-04-15T17:08:11.911Z,3.77
2023-04-15T17:10:40.380Z,3.80
2023-04-15T17:13:08.817Z,3.90
2023-04-15T17:15:37.286Z,3.73
2023-04-15T17:18:08.636Z,3.50
2023-04-15T17:20:37.109Z,3.43
2023-04-15T17:23:05.583Z,3.30
2023-04-15T17:25:33.932Z,3.40
2023-04-15T17:28:02.376Z,3.50
2023-04-15T17:30:30.825Z,4.20
2023-04-15T17:33:00.757Z,3.63
2023-04-15T17:35:30.817Z,3.97
2023-04-15T17:38:00.260Z,3.30
2023-04-15T17:40:28.641Z,2.73
2023-04-15T17:42:59.490Z,3.23
2023-04-15T17:45:27.892Z,3.30
2023-04-15T17:47:56.294Z,3.13
2023-04-15T17:50:24.788Z,3.00
2023-04-15T17:52:54.499Z,2.90
2023-04-15T17:55:24.299Z,2.63
2023-04-15T17:57:52.805Z,2.73
2023-04-15T18:00:21.431Z,2.60
2023-04-15T18:02:50.041Z,2.63
2023-04-15T18:05:19.858Z,2.83
2023-04-15T18:07:49.051Z,2.47
2023-04-15T18:10:19.687Z,2.50
2023-04-15T18:13:00.496Z,2.43
2023-04-15T18:15:29.006Z,3.10
2023-04-15T18:17:59.842Z,2.50
2023-04-15T18:20:28.525Z,3.30
2023-04-15T18:22:58.873Z,3.13
2023-04-15T18:25:30.076Z,2.90
2023-04-15T18:28:00.789Z,2.73
2023-04-15T18:30:29.787Z,2.90
2023-04-15T18:33:00.846Z,2.90
2023-04-15T18:35:29.934Z,2.97
2023-04-15T18:38:01.090Z,2.83
2023-04-15T18:40:30.876Z,3.07
2023-04-15T18:43:01.454Z,2.77
2023-04-15T18:45:31.164Z,2.67
2023-04-15T18:48:00.245Z,2.67
2023-04-15T18:50:28.723Z,3.27
2023-04-15T18:52:57.106Z,2.70
2023-04-15T18:55:25.473Z,3.50
2023-04-15T18:57:56.767Z,2.83
2023-04-15T19:00:36.425Z,2.97
2023-04-15T19:03:05.465Z,3.13
2023-04-15T19:05:34.070Z,2.90
2023-04-15T19:08:06.021Z,3.67
2023-04-15T19:10:35.536Z,3.33
2023-04-15T19:13:05.308Z,3.50
2023-04-15T19:15:33.801Z,4.00
2023-04-15T19:18:02.263Z,2.90
2023-04-15T19:20:33.972Z,2.93
2023-04-15T19:23:05.117Z,3.60
2023-04-15T19:25:33.537Z,7.40
2023-04-15T19:28:01.892Z,3.93
2023-04-15T19:30:33.064Z,3.47
2023-04-15T19:33:01.616Z,3.83
2023-04-15T19:35:29.964Z,3.57
2023-04-15T19:38:01.352Z,3.30
2023-04-15T19:40:29.827Z,3.30
2023-04-15T19:42:58.189Z,3.27
2023-04-15T19:45:27.093Z,3.60
2023-04-15T19:47:56.923Z,3.37
2023-04-15T19:50:27.632Z,3.37
2023-04-15T19:52:56.038Z,2.77
2023-04-15T19:55:24.441Z,4.13
2023-04-15T19:58:02.890Z,4.00
2023-04-15T20:00:31.884Z,3.80
2023-04-15T20:03:05.133Z,3.90
2023-04-15T20:05:33.720Z,3.83
2023-04-15T20:08:02.559Z,3.70
2023-04-15T20:10:32.513Z,3.30
2023-04-15T20:13:02.108Z,3.40
2023-04-15T20:15:30.637Z,2.60
2023-04-15T20:18:00.397Z,2.33
2023-04-15T20:20:30.427Z,3.17
2023-04-15T20:22:59.216Z,2.77
2023-04-15T20:25:27.760Z,2.70
2023-04-15T20:28:01.191Z,3.30
2023-04-15T20:30:30.034Z,3.27
2023-04-15T20:32:59.153Z,2.80
2023-04-15T20:35:31.044Z,2.67
2023-04-15T20:38:01.228Z,3.00
2023-04-15T20:40:29.973Z,2.63
2023-04-15T20:42:58.405Z,2.30
2023-04-15T20:45:27.043Z,2.60
2023-04-15T20:47:56.153Z,2.43
2023-04-15T20:50:24.605Z,2.40
2023-04-15T20:52:53.020Z,3.17
2023-04-15T20:55:22.883Z,3.20
2023-04-15T20:57:51.330Z,2.80
2023-04-15T21:00:19.743Z,3.63
2023-04-15T21:02:48.383Z,2.80
2023-04-15T21:05:17.012Z,3.10
2023-04-15T21:07:45.439Z,2.80
2023-04-15T21:10:13.915Z,2.90
2023-04-15T21:12:53.054Z,2.87
2023-04-15T21:15:21.655Z,2.87
2023-04-15T21:17:50.141Z,2.70
2023-04-15T21:20:20.809Z,2.63
2023-04-15T21:22:50.013Z,2.93
2023-04-15T21:25:18.456Z,3.00
2023-04-15T21:27:46.803Z,2.93
2023-04-15T21:30:16.501Z,2.90
2023-04-15T21:32:44.886Z,3.17
2023-04-15T21:35:13.337Z,2.80
2023-04-15T21:37:41.877Z,2.73
2023-04-15T21:40:11.632Z,2.87
2023-04-15T21:42:39.996Z,3.10
2023-04-15T21:45:09.050Z,2.93
2023-04-15T21:48:00.902Z,3.10
2023-04-15T21:50:27.459Z,3.00
2023-04-15T21:52:56.136Z,2.97
2023-04-15T21:55:24.787Z,2.70
2023-04-15T21:57:53.289Z,2.93
2023-04-15T22:00:23.122Z,3.10
2023-04-15T22:02:53.274Z,3.03
2023-04-15T22:05:22.006Z,3.20
2023-04-15T22:07:50.494Z,3.30
2023-04-15T22:10:19.565Z,3.33
2023-04-15T22:12:47.923Z,2.70
2023-04-15T22:15:16.747Z,2.97
2023-04-15T22:17:45.258Z,2.87
2023-04-15T22:20:15.270Z,3.33
2023-04-15T22:22:44.842Z,3.10
2023-04-15T22:25:13.630Z,2.83
2023-04-15T22:27:42.029Z,2.90
2023-04-15T22:30:11.574Z,2.97
2023-04-15T22:32:39.992Z,3.17
2023-04-15T22:35:09.158Z,3.20
2023-04-15T22:37:39.425Z,2.87
2023-04-15T22:40:08.902Z,2.60
2023-04-15T22:42:37.386Z,3.20
2023-04-15T22:45:06.804Z,2.90
2023-04-15T22:47:35.251Z,2.90
2023-04-15T22:50:03.650Z,2.70
2023-04-15T22:52:32.053Z,2.50
2023-04-15T22:55:01.848Z,2.53
2023-04-15T22:57:30.255Z,2.60
2023-04-15T22:59:58.686Z,2.47
2023-04-15T23:02:27.325Z,2.37
2023-04-15T23:04:56.587Z,2.10
2023-04-15T23:07:25.448Z,2.17
2023-04-15T23:09:53.797Z,2.50
2023-04-15T23:12:23.597Z,1.97
2023-04-15T23:14:52.012Z,2.10
2023-04-15T23:17:20.436Z,2.00
2023-04-15T23:19:49.033Z,2.30
2023-04-15T23:22:17.457Z,2.20
2023-04-15T23:24:45.828Z,1.90
2023-04-15T23:27:14.518Z,2.00
2023-04-15T23:29:44.369Z,1.80
2023-04-15T23:32:12.729Z,1.70
2023-04-15T23:34:41.084Z,2.00
2023-04-15T23:37:09.435Z,1.70
2023-04-15T23:39:37.856Z,1.40
2023-04-15T23:42:06.186Z,1.33
2023-04-15T23:44:34.539Z,1.80
2023-04-15T23:47:04.349Z,1.60
2023-04-15T23:49:32.939Z,1.40
2023-04-15T23:52:11.735Z,1.57
2023-04-15T23:54:40.829Z,1.60
2023-04-15T23:57:09.214Z,1.20
2023-04-15T23:59:37.791Z,1.27
